Time;durP1;ratioP1;P1;durP2;ratioP2;P2;SDS_P1;SDS_P2;PMS_P1;PMS_P2;Temp;Humidity;BMP_temperature;BMP_pressure;BME280_temperature;BME280_humidity;BME280_pressure;Samples;Min_cycle;Max_cycle;Signal;HPM_P1;HPM_P2
2023/11/14 00:08:38;;;;;;;2.80;0.90;;;;;;;;;;4844750;29;20058;-94
2023/11/14 00:11:33;;;;;;;4.05;1.30;;;;;;;;;;4818223;29;20038;-95
2023/11/14 00:14:40;;;;;;;1.63;0.80;;;;;;;;;;4843179;29;20033;-95
2023/11/14 00:29:46;;;;;;;;;;;;;;;;;;;;;
2023/11/14 00:49:35;;;;;;;1.65;0.22;;;;;;;;;;4909708;29;20056;-92
2023/11/14 00:52:47;;;;;;;;;;;;;;;;;;;;;
2023/11/14 00:58:38;;;;;;;0.00;0.00;;;;;;;;;;4903274;29;20559;-93
2023/11/14 01:01:06;;;;;;;1.30;0.20;;;;;;;;;;4891444;29;20051;-93
2023/11/14 01:21:55;;;;;;;0.63;0.20;;;;;;;;;;4875273;29;20033;-96
2023/11/14 01:24:47;;;;;;;4.13;0.73;;;;;;;;;;4905005;29;20083;-95
2023/11/14 01:27:19;;;;;;;1.87;0.63;;;;;;;;;;4907123;29;20047;-94
2023/11/14 01:29:51;;;;;;;1.92;0.08;;;;;;;;;;4904026;29;20024;-94
2023/11/14 01:32:21;;;;;;;;;;;;;;;;;;4904744;29;20423;-95
2023/11/14 01:35:18;;;;;;;0.32;0.10;;;;;;;;;;4903649;29;19974;-93
2023/11/14 01:37:45;;;;;;;1.42;0.35;;;;;;;;;;4903675;29;20044;-92
2023/11/14 01:49:44;;;;;;;4.25;0.30;;;;;;;;;;4826168;29;20438;-94
2023/11/14 02:01:54;;;;;;;;;;;;;;;;;;;;;
2023/11/14 02:04:35;;;;;;;1.63;0.40;;;;;;;;;;4920553;29;20038;-93
2023/11/14 02:13:49;;;;;;;;;;;;;;;;;;;;;
2023/11/14 02:18:58;;;;;;;0.93;0.60;;;;;;;;;;4907995;29;20115;-94
2023/11/14 02:22:01;;;;;;;3.35;1.17;;;;;;;;;;4900819;29;20064;-95
2023/11/14 02:27:59;;;;;;;0.75;0.40;;;;;;;;;;4825392;29;20042;-94
2023/11/14 02:30:37;;;;;;;1.80;0.88;;;;;;;;;;4788761;30;20092;-93
2023/11/14 02:33:33;;;;;;;7.43;0.57;;;;;;;;;;4772226;30;20043;-94
2023/11/14 02:43:53;;;;;;;;;;;;;;;;;;;;;
2023/11/14 02:46:20;;;;;;;0.10;0.10;;;;;;;;;;4922453;29;20064;-92
2023/11/14 02:48:46;;;;;;;0.20;0.13;;;;;;;;;;4914589;29;20046;-92
2023/11/14 02:51:13;;;;;;;0.47;0.38;;;;;;;;;;4900169;29;20050;-91
2023/11/14 02:53:39;;;;;;;0.40;0.28;;;;;;;;;;4900075;29;20047;-92
2023/11/14 02:56:05;;;;;;;0.05;0.05;;;;;;;;;;4909494;29;20127;-92
2023/11/14 02:58:31;;;;;;;0.00;0.00;;;;;;;;;;4905391;29;20394;-91
2023/11/14 03:00:58;;;;;;;0.05;0.00;;;;;;;;;;4916840;29;20062;-92
2023/11/14 03:22:47;;;;;;;;;;;;;;;;;;;;;
2023/11/14 03:37:39;;;;;;;2.58;0.88;;;;;;;;;;4939749;29;20075;-94
2023/11/14 03:59:49;;;;;;;;;;;;;;;;;;;;;
2023/11/14 04:38:12;;;;;;;0.10;0.05;;;;;;;;;;4945033;29;20058;-95
2023/11/14 04:47:15;;;;;;;;;;;;;;;;;;;;;
2023/11/14 04:50:31;;;;;;;0.32;0.10;;;;;;;;;;4890968;29;20032;-96
2023/11/14 04:53:38;;;;;;;0.00;0.00;;;;;;;;;;4903585;29;20056;-94
2023/11/14 05:05:51;;;;;;;0.20;0.20;;;;;;;;;;4943441;29;20498;-95
2023/11/14 05:08:19;;;;;;;0.60;0.15;;;;;;;;;;4926604;29;20070;-94
2023/11/14 05:10:55;;;;;;;0.20;0.10;;;;;;;;;;4923768;29;20035;-93
2023/11/14 05:13:29;;;;;;;0.08;0.00;;;;;;;;;;4923873;29;20080;-93
2023/11/14 05:16:03;;;;;;;2.47;0.05;;;;;;;;;;4923837;29;20122;-95
2023/11/14 05:18:29;;;;;;;0.10;0.10;;;;;;;;;;4923268;29;20040;-94
2023/11/14 05:20:58;;;;;;;0.03;0.03;;;;;;;;;;4924369;29;20039;-94
2023/11/14 05:23:24;;;;;;;0.00;0.00;;;;;;;;;;4923231;29;20059;-93
2023/11/14 05:25:53;;;;;;;0.25;0.10;;;;;;;;;;4923388;29;20075;-95
2023/11/14 05:28:19;;;;;;;0.10;0.10;;;;;;;;;;4922787;29;20036;-95
2023/11/14 05:33:54;;;;;;;0.25;0.10;;;;;;;;;;4913316;29;20059;-96
2023/11/14 05:48:47;;;;;;;0.03;0.00;;;;;;;;;;4952040;29;20046;-96
2023/11/14 05:53:49;;;;;;;0.77;0.45;;;;;;;;;;5227088;23;20055;-92
2023/11/14 05:58:59;;;;;;;1.00;0.30;;;;;;;;;;4952248;29;20055;-95
2023/11/14 06:01:47;;;;;;;;;;;;;;;;;;;;;
2023/11/14 06:04:13;;;;;;;1.40;0.73;;;;;;;;;;4942352;29;20054;-93
2023/11/14 06:07:02;;;;;;;0.60;0.30;;;;;;;;;;4932701;29;20047;-96
2023/11/14 06:12:25;;;;;;;0.57;0.13;;;;;;;;;;5199667;23;20161;-94
2023/11/14 06:15:13;;;;;;;3.10;1.00;;;;;;;;;;4932685;29;20043;-95
2023/11/14 06:17:41;;;;;;;1.27;0.38;;;;;;;;;;4908647;29;20051;-95
2023/11/14 06:20:09;;;;;;;0.10;0.10;;;;;;;;;;4929961;29;20035;-95
2023/11/14 06:22:39;;;;;;;0.10;0.05;;;;;;;;;;4922864;29;20298;-94
2023/11/14 06:28:30;;;;;;;0.15;0.10;;;;;;;;;;4863949;29;20456;-91
2023/11/14 06:37:03;;;;;;;1.35;0.60;;;;;;;;;;4925456;29;20039;-90
2023/11/14 06:39:29;;;;;;;0.20;0.17;;;;;;;;;;4908887;29;20047;-88
2023/11/14 06:41:58;;;;;;;2.53;0.30;;;;;;;;;;4922520;29;20036;-92
2023/11/14 06:44:30;;;;;;;1.50;0.65;;;;;;;;;;4922728;29;20035;-92
2023/11/14 06:49:48;;;;;;;0.55;0.40;;;;;;;;;;4935450;29;20087;-92
2023/11/14 07:02:05;;;;;;;2.95;0.70;;;;;;;;;;5014829;23;20430;-92
2023/11/14 07:19:15;;;;;;;0.95;0.70;;;;;;;;;;4918254;29;20062;-91
2023/11/14 07:27:46;;;;;;;5.25;0.80;;;;;;;;;;4936394;29;20055;-91
2023/11/14 07:33:17;;;;;;;1.92;0.70;;;;;;;;;;4853665;29;20548;-92
2023/11/14 07:36:00;;;;;;;0.52;0.17;;;;;;;;;;4894482;29;20040;-91
2023/11/14 07:38:35;;;;;;;4.90;0.88;;;;;;;;;;4879957;29;20040;-92
2023/11/14 07:41:17;;;;;;;0.15;0.10;;;;;;;;;;4893126;29;20120;-91
2023/11/14 07:44:16;;;;;;;;;;;;;;;;;;;;;
2023/11/14 07:47:06;;;;;;;0.28;0.17;;;;;;;;;;4893839;29;20521;-91
2023/11/14 07:50:08;;;;;;;1.17;0.22;;;;;;;;;;4878453;29;20051;-91
2023/11/14 07:59:00;;;;;;;1.98;0.30;;;;;;;;;;4839533;29;20117;-92
2023/11/14 08:01:29;;;;;;;1.15;0.10;;;;;;;;;;4850945;29;20053;-91
2023/11/14 08:04:05;;;;;;;0.00;0.00;;;;;;;;;;4841632;29;20045;-90
2023/11/14 08:09:15;;;;;;;0.10;0.10;;;;;;;;;;4933239;29;20099;-90
2023/11/14 08:11:46;;;;;;;0.10;0.00;;;;;;;;;;4919115;29;20044;-90
2023/11/14 08:14:15;;;;;;;0.00;0.00;;;;;;;;;;4918631;29;20139;-92
2023/11/14 08:16:41;;;;;;;0.00;0.00;;;;;;;;;;4918853;29;20051;-91
2023/11/14 08:19:16;;;;;;;1.20;0.47;;;;;;;;;;4915387;29;20187;-91
2023/11/14 08:21:50;;;;;;;0.32;0.20;;;;;;;;;;4910023;29;20051;-90
2023/11/14 08:24:23;;;;;;;1.20;0.20;;;;;;;;;;4917457;29;20055;-91
2023/11/14 08:27:10;;;;;;;;;;;;;;;;;;;;;
2023/11/14 08:30:13;;;;;;;0.00;0.00;;;;;;;;;;4915993;29;20109;-91
2023/11/14 08:33:07;;;;;;;;;;;;;;;;;;;;;
2023/11/14 08:45:27;;;;;;;1.67;1.13;;;;;;;;;;4925298;29;20095;-92
2023/11/14 09:09:41;;;;;;;0.10;0.03;;;;;;;;;;4877803;29;20074;-92
2023/11/14 09:18:59;;;;;;;0.25;0.10;;;;;;;;;;4919509;29;20055;-93
2023/11/14 09:37:54;;;;;;;;;;;;;;;;;;;;;
2023/11/14 09:40:59;;;;;;;1.33;0.82;;;;;;;;;;4918607;29;20044;-92
2023/11/14 09:52:57;;;;;;;13.38;5.82;;;;;;;;;;4898198;29;20056;-90
2023/11/14 10:01:34;;;;;;;4.60;2.05;;;;;;;;;;4936347;29;20047;-91
2023/11/14 10:04:21;;;;;;;4.93;2.15;;;;;;;;;;4909616;29;20042;-91
2023/11/14 10:29:34;;;;;;;;;;;;;;;;;;;;;
2023/11/14 10:32:35;;;;;;;2.38;0.85;;;;;;;;;;4851939;29;20374;-92
2023/11/14 10:52:54;;;;;;;9.20;1.75;;;;;;;;;;4823039;29;20151;-92
2023/11/14 12:08:08;;;;;;;4.50;1.10;;;;;;;;;;4913978;29;20079;-91
2023/11/14 12:10:37;;;;;;;;;;;;;;;;;;;;;
2023/11/14 12:36:48;;;;;;;10.32;1.50;;;;;;;;;;4902772;29;20047;-93
2023/11/14 12:45:34;;;;;;;2.40;1.13;;;;;;;;;;4906174;29;20044;-93
2023/11/14 12:48:30;;;;;;;4.00;2.03;;;;;;;;;;4861206;29;20150;-91
2023/11/14 12:54:28;;;;;;;4.63;2.10;;;;;;;;;;4824725;29;20042;-93
2023/11/14 12:57:29;;;;;;;4.90;1.60;;;;;;;;;;4806827;29;20047;-93
2023/11/14 13:03:17;;;;;;;5.15;1.27;;;;;;;;;;4736967;30;20098;-93
2023/11/14 13:18:20;;;;;;;4.13;1.65;;;;;;;;;;4919357;29;20071;-94
2023/11/14 13:39:20;;;;;;;0.30;0.10;;;;;;;;;;4807258;29;20390;-92
2023/11/14 13:45:35;;;;;;;3.78;1.23;;;;;;;;;;4881536;29;20055;-92
2023/11/14 13:48:36;;;;;;;3.13;1.52;;;;;;;;;;4919006;29;20083;-90
2023/11/14 13:54:09;;;;;;;0.38;0.28;;;;;;;;;;4909622;29;20043;-92
2023/11/14 13:56:52;;;;;;;2.20;0.95;;;;;;;;;;4909665;29;20047;-94
2023/11/14 13:59:45;;;;;;;3.17;1.00;;;;;;;;;;4918156;29;20044;-93
2023/11/14 14:08:30;;;;;;;4.03;1.67;;;;;;;;;;4936218;29;20426;-90
2023/11/14 14:11:37;;;;;;;1.88;0.98;;;;;;;;;;4916705;29;20040;-95
2023/11/14 14:14:12;;;;;;;0.52;0.40;;;;;;;;;;4843643;29;20038;-95
2023/11/14 14:22:48;;;;;;;;;;;;;;;;;;4770835;30;20050;-94
2023/11/14 14:25:19;;;;;;;1.00;0.75;;;;;;;;;;4785733;29;19962;-91
2023/11/14 14:53:53;;;;;;;;;;;;;;;;;;;;;
2023/11/14 14:56:51;;;;;;;6.90;3.80;;;;;;;;;;4919155;29;20516;-93
2023/11/14 15:58:10;;;;;;;2.95;0.85;;;;;;;;;;4851695;29;20053;-91
2023/11/14 16:11:53;;;;;;;0.10;0.10;;;;;;;;;;4944030;23;20095;-90
2023/11/14 16:14:36;;;;;;;0.45;0.17;;;;;;;;;;4905343;29;20055;-89
2023/11/14 16:17:50;;;;;;;;;;;;;;;;;;;;;
2023/11/14 16:20:17;;;;;;;0.08;0.00;;;;;;;;;;4929314;29;20043;-89
2023/11/14 16:26:04;;;;;;;0.00;0.00;;;;;;;;;;4862259;29;20146;-86
2023/11/14 16:28:41;;;;;;;1.20;0.40;;;;;;;;;;4908181;29;20035;-88
2023/11/14 16:31:07;;;;;;;2.22;0.80;;;;;;;;;;4921594;29;20051;-86
2023/11/14 16:33:36;;;;;;;0.65;0.28;;;;;;;;;;4917562;29;20508;-87
2023/11/14 16:36:02;;;;;;;0.10;0.05;;;;;;;;;;4917465;29;20055;-85
2023/11/14 16:38:29;;;;;;;0.30;0.20;;;;;;;;;;4903093;29;20186;-87
2023/11/14 16:40:57;;;;;;;0.17;0.10;;;;;;;;;;4927669;29;20062;-86
2023/11/14 16:43:23;;;;;;;0.10;0.10;;;;;;;;;;4936560;29;20040;-85
2023/11/14 16:45:49;;;;;;;1.60;0.50;;;;;;;;;;4921329;29;20051;-84
2023/11/14 16:48:15;;;;;;;0.25;0.00;;;;;;;;;;4918171;29;20075;-86
2023/11/14 16:50:42;;;;;;;0.28;0.10;;;;;;;;;;4917699;29;20051;-84
2023/11/14 16:53:08;;;;;;;0.93;0.43;;;;;;;;;;4915973;29;20545;-85
2023/11/14 16:55:37;;;;;;;0.45;0.38;;;;;;;;;;4934612;29;20039;-85
2023/11/14 16:58:04;;;;;;;0.13;0.13;;;;;;;;;;4919590;29;20048;-86
2023/11/14 17:00:32;;;;;;;0.63;0.30;;;;;;;;;;4932964;29;20417;-86
2023/11/14 17:02:58;;;;;;;5.93;0.60;;;;;;;;;;4917806;29;20055;-89
2023/11/14 17:05:25;;;;;;;3.03;0.40;;;;;;;;;;4920313;29;20094;-85
2023/11/14 17:07:51;;;;;;;1.08;0.45;;;;;;;;;;4919693;29;20411;-85
2023/11/14 17:10:18;;;;;;;0.52;0.30;;;;;;;;;;4919821;29;20049;-85
2023/11/14 17:12:44;;;;;;;1.65;0.55;;;;;;;;;;4939803;29;20062;-86
2023/11/14 17:15:12;;;;;;;0.57;0.45;;;;;;;;;;4927098;29;20052;-87
2023/11/14 17:17:38;;;;;;;4.13;0.95;;;;;;;;;;4916085;29;20137;-88
2023/11/14 17:20:10;;;;;;;2.53;1.38;;;;;;;;;;4930158;29;20044;-86
2023/11/14 17:25:47;;;;;;;0.85;0.40;;;;;;;;;;4929289;29;20043;-86
2023/11/14 17:28:14;;;;;;;2.08;0.55;;;;;;;;;;4915457;29;20091;-87
2023/11/14 17:31:06;;;;;;;0.90;0.40;;;;;;;;;;4911775;29;20051;-88
2023/11/14 17:33:32;;;;;;;0.55;0.35;;;;;;;;;;4912764;29;20047;-86
2023/11/14 17:38:57;;;;;;;2.03;0.82;;;;;;;;;;4922987;29;20131;-87
2023/11/14 17:41:25;;;;;;;0.70;0.32;;;;;;;;;;4917460;29;20442;-87
2023/11/14 17:43:54;;;;;;;1.30;0.45;;;;;;;;;;4935537;29;20028;-85
2023/11/14 17:46:21;;;;;;;3.40;1.65;;;;;;;;;;4917646;29;20039;-85
2023/11/14 17:48:47;;;;;;;5.75;2.53;;;;;;;;;;4930911;29;20498;-85
2023/11/14 17:51:13;;;;;;;4.50;2.00;;;;;;;;;;4924878;29;20039;-85
2023/11/14 17:53:42;;;;;;;2.88;1.13;;;;;;;;;;4918710;29;20074;-88
2023/11/14 17:56:20;;;;;;;0.47;0.32;;;;;;;;;;4918922;29;20492;-87
2023/11/14 17:58:46;;;;;;;1.73;0.73;;;;;;;;;;4908546;29;20802;-86
2023/11/14 18:03:50;;;;;;;2.10;0.68;;;;;;;;;;4913605;29;20702;-87
2023/11/14 18:06:47;;;;;;;2.70;0.98;;;;;;;;;;4980097;23;20034;-90
2023/11/14 18:09:17;;;;;;;0.63;0.47;;;;;;;;;;4881835;29;20051;-89
2023/11/14 18:11:49;;;;;;;2.45;1.08;;;;;;;;;;4886913;29;20045;-86
2023/11/14 18:14:15;;;;;;;1.10;0.55;;;;;;;;;;4888388;29;20105;-87
2023/11/14 18:19:46;;;;;;;3.47;0.98;;;;;;;;;;4826765;29;20418;-89
2023/11/14 18:22:23;;;;;;;1.58;0.90;;;;;;;;;;4872329;29;20574;-88
2023/11/14 18:30:37;;;;;;;0.30;0.20;;;;;;;;;;4923451;29;20060;-88
2023/11/14 18:33:06;;;;;;;0.65;0.35;;;;;;;;;;4911309;29;20466;-87
2023/11/14 18:35:34;;;;;;;4.15;0.93;;;;;;;;;;4899899;29;20051;-88
2023/11/14 18:40:50;;;;;;;3.03;1.42;;;;;;;;;;4905308;29;20088;-88
2023/11/14 18:43:55;;;;;;;3.75;1.77;;;;;;;;;;4933946;23;20438;-89
2023/11/14 18:46:21;;;;;;;1.58;0.55;;;;;;;;;;4811935;29;20167;-90
2023/11/14 18:56:53;;;;;;;0.70;0.27;;;;;;;;;;4933596;29;20056;-91
2023/11/14 18:59:26;;;;;;;1.05;0.32;;;;;;;;;;4917239;29;20489;-89
2023/11/14 19:04:54;;;;;;;0.32;0.20;;;;;;;;;;4935309;23;20399;-89
2023/11/14 19:19:23;;;;;;;3.35;1.55;;;;;;;;;;4888153;29;20044;-88
2023/11/14 19:21:51;;;;;;;0.95;0.70;;;;;;;;;;4914100;29;20074;-89
2023/11/14 19:24:18;;;;;;;3.42;1.60;;;;;;;;;;4909152;29;20049;-90
2023/11/14 19:47:04;;;;;;;3.20;1.65;;;;;;;;;;4909649;23;20055;-89
2023/11/14 19:49:45;;;;;;;4.18;1.35;;;;;;;;;;4895922;29;20186;-89
2023/11/14 19:52:27;;;;;;;3.88;2.00;;;;;;;;;;4896975;29;20048;-90
2023/11/14 19:55:04;;;;;;;4.45;1.85;;;;;;;;;;4893966;29;20493;-90
2023/11/14 19:58:14;;;;;;;3.53;1.63;;;;;;;;;;4873339;29;20502;-90
2023/11/14 20:00:53;;;;;;;1.23;0.60;;;;;;;;;;4925529;23;20055;-91
2023/11/14 20:03:24;;;;;;;2.60;1.40;;;;;;;;;;4898176;29;20044;-90
2023/11/14 20:06:02;;;;;;;1.23;0.60;;;;;;;;;;4907181;29;20391;-91
2023/11/14 20:08:33;;;;;;;3.85;0.70;;;;;;;;;;4900601;29;20147;-90
2023/11/14 20:11:25;;;;;;;2.85;1.48;;;;;;;;;;4913455;29;20070;-90
2023/11/14 20:14:13;;;;;;;3.40;2.03;;;;;;;;;;4907910;29;20063;-89
2023/11/14 20:16:52;;;;;;;5.45;2.17;;;;;;;;;;4924532;23;20052;-90
2023/11/14 20:19:23;;;;;;;2.10;1.13;;;;;;;;;;4914279;29;20036;-90
2023/11/14 20:22:11;;;;;;;1.10;0.60;;;;;;;;;;4913197;29;20050;-89
2023/11/14 20:24:51;;;;;;;4.03;1.02;;;;;;;;;;4916213;29;20050;-90
2023/11/14 20:27:33;;;;;;;4.53;2.45;;;;;;;;;;4906504;29;20036;-89
2023/11/14 20:30:09;;;;;;;2.00;1.20;;;;;;;;;;4910556;29;20138;-90
2023/11/14 20:32:38;;;;;;;2.60;0.98;;;;;;;;;;4915864;29;20040;-90
2023/11/14 20:35:04;;;;;;;2.38;0.60;;;;;;;;;;4909285;29;20054;-90
2023/11/14 20:37:50;;;;;;;2.45;1.00;;;;;;;;;;4912429;29;20473;-89
2023/11/14 20:40:40;;;;;;;2.95;1.23;;;;;;;;;;4909445;29;20434;-90
2023/11/14 20:43:29;;;;;;;3.55;1.30;;;;;;;;;;4903016;29;20044;-88
2023/11/14 20:45:56;;;;;;;5.30;0.75;;;;;;;;;;4889932;29;20053;-89
2023/11/14 20:48:22;;;;;;;2.60;1.05;;;;;;;;;;4887982;29;20053;-89
2023/11/14 20:53:46;;;;;;;18.05;1.73;;;;;;;;;;4882042;29;20072;-89
2023/11/14 20:58:59;;;;;;;3.92;0.77;;;;;;;;;;4872865;29;20072;-89
2023/11/14 21:01:32;;;;;;;0.75;0.50;;;;;;;;;;4858067;29;20128;-89
2023/11/14 21:04:01;;;;;;;7.28;1.23;;;;;;;;;;4864183;29;20056;-89
2023/11/14 21:06:29;;;;;;;0.70;0.40;;;;;;;;;;4872630;29;20037;-90
2023/11/14 21:09:17;;;;;;;2.10;0.90;;;;;;;;;;4860116;29;20037;-90
2023/11/14 21:12:01;;;;;;;4.22;0.30;;;;;;;;;;4885361;23;20055;-88
2023/11/14 21:14:27;;;;;;;0.93;0.25;;;;;;;;;;4908215;29;20075;-89
2023/11/14 21:16:55;;;;;;;5.53;1.45;;;;;;;;;;4913329;29;20048;-89
2023/11/14 21:19:21;;;;;;;3.10;1.75;;;;;;;;;;4915982;29;20035;-88
2023/11/14 21:21:47;;;;;;;0.70;0.32;;;;;;;;;;4913258;29;20063;-89
2023/11/14 21:24:13;;;;;;;4.18;1.20;;;;;;;;;;4918022;29;20036;-88
2023/11/14 21:26:40;;;;;;;2.20;0.68;;;;;;;;;;4905848;29;20176;-89
2023/11/14 21:29:09;;;;;;;1.40;0.60;;;;;;;;;;4912256;29;20410;-88
2023/11/14 21:31:42;;;;;;;1.58;0.75;;;;;;;;;;4912596;29;20139;-88
2023/11/14 21:34:11;;;;;;;0.88;0.45;;;;;;;;;;4913637;29;20079;-89
2023/11/14 21:36:37;;;;;;;0.80;0.45;;;;;;;;;;4911894;29;20063;-89
2023/11/14 21:39:04;;;;;;;1.25;0.50;;;;;;;;;;4918765;29;20048;-89
2023/11/14 21:41:31;;;;;;;0.93;0.47;;;;;;;;;;4916587;29;20498;-89
2023/11/14 21:44:05;;;;;;;3.85;1.17;;;;;;;;;;4918801;29;20122;-89
2023/11/14 21:46:36;;;;;;;2.35;0.68;;;;;;;;;;4916791;29;20032;-89
2023/11/14 21:49:03;;;;;;;5.40;1.40;;;;;;;;;;4920561;29;20039;-89
2023/11/14 21:51:29;;;;;;;3.28;1.73;;;;;;;;;;4920712;29;20058;-89
2023/11/14 21:53:58;;;;;;;3.92;0.73;;;;;;;;;;4915115;29;20036;-90
2023/11/14 21:56:24;;;;;;;3.92;1.38;;;;;;;;;;4920784;29;20047;-91
2023/11/14 21:58:52;;;;;;;2.00;1.48;;;;;;;;;;4920633;29;20052;-91
2023/11/14 22:01:18;;;;;;;4.07;2.22;;;;;;;;;;4920748;29;20040;-91
2023/11/14 22:03:44;;;;;;;3.63;1.02;;;;;;;;;;4919287;29;20102;-90
2023/11/14 22:06:10;;;;;;;2.60;1.60;;;;;;;;;;4916289;29;20051;-91
2023/11/14 22:08:42;;;;;;;4.40;1.35;;;;;;;;;;4914432;29;20051;-90
2023/11/14 22:11:11;;;;;;;2.35;1.15;;;;;;;;;;4936068;29;20032;-90
2023/11/14 22:13:37;;;;;;;4.13;1.92;;;;;;;;;;4935320;29;20489;-92
2023/11/14 22:16:04;;;;;;;5.78;1.67;;;;;;;;;;4920746;29;20054;-91
2023/11/14 22:18:30;;;;;;;2.38;1.23;;;;;;;;;;4915254;29;20140;-91
2023/11/14 22:20:56;;;;;;;2.17;0.65;;;;;;;;;;4910700;29;20164;-90
2023/11/14 22:23:23;;;;;;;1.40;0.77;;;;;;;;;;4916674;29;20028;-90
2023/11/14 22:25:51;;;;;;;3.13;1.02;;;;;;;;;;4918153;29;20055;-90
2023/11/14 22:28:17;;;;;;;1.00;0.55;;;;;;;;;;4918045;29;20036;-90
2023/11/14 22:30:49;;;;;;;1.63;0.47;;;;;;;;;;4912474;29;21074;-90
2023/11/14 22:33:18;;;;;;;2.03;0.77;;;;;;;;;;4918390;29;20204;-91
2023/11/14 22:35:47;;;;;;;5.07;0.88;;;;;;;;;;4912952;29;20082;-91
2023/11/14 22:38:31;;;;;;;6.05;2.17;;;;;;;;;;4929283;29;20056;-91
2023/11/14 22:41:13;;;;;;;3.30;1.85;;;;;;;;;;4917786;29;20043;-90
2023/11/14 22:43:45;;;;;;;3.17;1.90;;;;;;;;;;4907481;29;20067;-90
2023/11/14 22:46:20;;;;;;;1.77;0.90;;;;;;;;;;4914340;29;20044;-90
2023/11/14 22:48:49;;;;;;;1.67;0.75;;;;;;;;;;4908249;29;20394;-91
2023/11/14 22:51:15;;;;;;;0.77;0.45;;;;;;;;;;4906310;29;20087;-90
2023/11/14 22:53:41;;;;;;;2.10;1.40;;;;;;;;;;4917666;29;20055;-89
2023/11/14 22:56:23;;;;;;;4.32;1.13;;;;;;;;;;4906221;29;20793;-90
2023/11/14 22:58:54;;;;;;;1.95;0.70;;;;;;;;;;4911411;29;20048;-90
2023/11/14 23:01:30;;;;;;;1.55;0.57;;;;;;;;;;4907355;29;20046;-91
2023/11/14 23:04:11;;;;;;;2.00;0.38;;;;;;;;;;4912838;29;20044;-90
2023/11/14 23:06:40;;;;;;;2.60;0.60;;;;;;;;;;4914734;29;20063;-91
2023/11/14 23:09:19;;;;;;;2.30;1.02;;;;;;;;;;4915520;29;20100;-90
2023/11/14 23:12:04;;;;;;;2.25;1.00;;;;;;;;;;4908160;29;20482;-91
2023/11/14 23:14:36;;;;;;;4.82;1.58;;;;;;;;;;4914730;29;20401;-90
2023/11/14 23:17:03;;;;;;;1.25;0.73;;;;;;;;;;4909631;29;20051;-90
2023/11/14 23:19:31;;;;;;;0.00;0.00;;;;;;;;;;4918812;29;20043;-90
2023/11/14 23:22:11;;;;;;;1.63;0.40;;;;;;;;;;4932982;29;20047;-90
2023/11/14 23:24:48;;;;;;;0.90;0.20;;;;;;;;;;4916185;29;20047;-90
2023/11/14 23:27:17;;;;;;;0.57;0.30;;;;;;;;;;4907407;29;20131;-90
2023/11/14 23:30:08;;;;;;;0.65;0.00;;;;;;;;;;4906502;29;20043;-90
2023/11/14 23:32:32;;;;;;;1.02;0.38;;;;;;;;;;4932535;29;20454;-89
2023/11/14 23:35:08;;;;;;;1.02;0.40;;;;;;;;;;4918217;29;20487;-91
2023/11/14 23:37:38;;;;;;;0.95;0.50;;;;;;;;;;4916911;29;20087;-90
2023/11/14 23:40:34;;;;;;;6.05;0.47;;;;;;;;;;4894524;29;20048;-90
2023/11/14 23:43:33;;;;;;;1.25;0.47;;;;;;;;;;4862506;29;20060;-91
